Flight Track Log - Related Links

Times and Time Zones

All times are in EDT time to prevent confusion due to time zone crossing. See the ASQ5875 flight status page for this flight to view local times or setup timezone preferences in your user account.

Time Position Orientation Groundspeed Altitude Reporting Facility
EDT Latitude Longitude Course Direction KTS MPH feet Rate Location/Type
Mon 10:13:35 AM 41.9167 -87.9167 166° South 165 190 2,800  Level Chicago TRACON
Mon 10:14:30 AM 41.8667 -87.9000 166° South 214 246 4,000 1,409 Climbing Chicago TRACON
Mon 10:15:30 AM 41.8000 -87.9000 180° South 271 312 5,500 1,736 Climbing Chicago TRACON
Mon 10:16:31 AM 41.7319 -87.8453 149° Southeast 305 351 7,500 1,854 Climbing Chicago Center
Mon 10:17:33 AM 41.6617 -87.7814 146° Southeast 302 348 9,300 1,742 Climbing Chicago Center
Mon 10:18:35 AM 41.5886 -87.7181 147° Southeast 315 362 11,100 1,548 Climbing Chicago Center
Mon 10:19:37 AM 41.5136 -87.6511 146° Southeast 325 374 12,500 1,056 Climbing Chicago Center
Mon 10:20:40 AM 41.4314 -87.5803 147° Southeast 347 399 13,300 816 Climbing Chicago Center
Mon 10:21:42 AM 41.3417 -87.5047 148° Southeast 376 433 14,200 1,016 Climbing Chicago Center
Mon 10:22:44 AM 41.2278 -87.4408 157° South 379 436 15,400 1,065 Climbing Chicago Center
Mon 10:23:46 AM 41.1214 -87.3953 162° South 391 450 16,400 968 Climbing Chicago Center
Mon 10:24:48 AM 41.0181 -87.3503 162° South 392 451 17,400 871 Climbing Chicago Center
Mon 10:25:50 AM 40.9139 -87.3042 162° South 395 455 18,200 823 Climbing Chicago Center
Mon 10:26:52 AM 40.8069 -87.2603 163° South 401 461 19,100 919 Climbing Chicago Center
Mon 10:27:54 AM 40.6903 -87.2956 193° South 394 453 20,100 919 Climbing Chicago Center
Mon 10:28:56 AM 40.5797 -87.3111 186° South 406 467 21,000 823 Climbing Chicago Center
Mon 10:29:58 AM 40.4714 -87.2439 155° Southeast 434 499 21,800 871 Climbing Chicago Center
Mon 10:31:00 AM 40.3433 -87.1531 152° Southeast 438 504 22,800 871 Climbing Chicago Center
Mon 10:32:02 AM 40.2369 -87.0775 152° Southeast 438 504 23,600 768 Climbing Chicago Center
Mon 10:33:05 AM 40.1278 -87.0014 152° Southeast 443 510 24,400 923 Climbing Chicago Center
Mon 10:34:12 AM 39.9975 -86.9097 152° Southeast 443 510 25,600 977 Climbing Indianapolis Center
Mon 10:35:14 AM 39.8992 -86.8192 145° Southeast 440 506 26,500 919 Climbing Indianapolis Center
Mon 10:36:16 AM 39.8239 -86.6947 128° Southeast 438 504 27,500 968 Climbing Indianapolis Center
Mon 10:37:18 AM 39.7511 -86.5714 127° Southeast 435 501 28,500 919 Climbing Indianapolis Center
Mon 10:38:20 AM 39.6639 -86.4264 128° Southeast 434 499 29,400 823 Climbing Indianapolis Center
Mon 10:39:22 AM 39.5900 -86.3039 128° Southeast 442 509 30,200 823 Climbing Indianapolis Center
Mon 10:40:24 AM 39.5150 -86.1778 128° Southeast 448 516 31,100 871 Climbing Indianapolis Center
Mon 10:41:26 AM 39.4389 -86.0514 128° Southeast 450 518 32,000 871 Climbing Indianapolis Center
Mon 10:42:28 AM 39.3456 -85.8983 128° Southeast 454 522 32,900 484 Climbing Indianapolis Center
Mon 10:43:30 AM 39.2653 -85.7669 128° Southeast 464 534 33,000 435 Climbing Indianapolis Center
Mon 10:44:32 AM 39.1817 -85.6308 128° Southeast 482 555 33,800 919 Climbing Indianapolis Center
Mon 10:45:34 AM 39.0994 -85.4961 128° Southeast 481 554 34,900 581 Climbing Indianapolis Center
Mon 10:46:36 AM 39.0175 -85.3631 128° Southeast 477 549 35,000 48 Climbing Indianapolis Center
Mon 10:47:38 AM 38.9311 -85.2239 129° Southeast 493 567 35,000  Level Indianapolis Center
Mon 10:48:40 AM 38.8228 -85.0519 129° Southeast 515 593 35,000  Level Indianapolis Center
Mon 10:49:43 AM 38.7311 -84.9039 128° Southeast 530 610 35,000  Level Indianapolis Center
Mon 10:50:45 AM 38.6394 -84.7581 129° Southeast 529 609 35,000  Level Indianapolis Center
Mon 10:51:47 AM 38.5367 -84.5942 129° Southeast 528 608 35,000  Level Indianapolis Center
Mon 10:52:49 AM 38.4444 -84.4519 130° Southeast 521 600 35,000  Level Indianapolis Center
Mon 10:53:51 AM 38.3528 -84.3064 129° Southeast 523 602 35,000 -339 Level Indianapolis Center
Mon 10:54:53 AM 38.2622 -84.1636 129° Southeast 519 597 34,300 -677 Descending Indianapolis Center
Mon 10:55:55 AM 38.1722 -84.0225 129° Southeast 514 592 33,600 -629 Descending Indianapolis Center
Mon 10:56:57 AM 38.0664 -83.8647 130° Southeast 501 577 33,000 -290 Descending Indianapolis Center
Mon 10:57:59 AM 37.9756 -83.7206 129° Southeast 518 596 33,000  Level Indianapolis Center
Mon 10:59:01 AM 37.8839 -83.5811 130° Southeast 513 590 33,000  Level Indianapolis Center
Mon 11:00:03 AM 37.7914 -83.4444 131° Southeast 510 587 33,000  Level Indianapolis Center
Mon 11:01:05 AM 37.6781 -83.3317 142° Southeast 519 597 33,000  Level Indianapolis Center
Mon 11:02:07 AM 37.5667 -83.2233 142° Southeast 509 586 33,000 -145 Level Indianapolis Center
Mon 11:03:09 AM 37.4369 -83.0956 142° Southeast 505 581 32,700 -532 Descending Indianapolis Center
Mon 11:04:11 AM 37.3267 -82.9878 142° Southeast 501 577 31,900 -823 Descending Indianapolis Center
Mon 11:05:13 AM 37.2175 -82.8806 142° Southeast 494 568 31,000 -774 Descending Indianapolis Center
Mon 11:06:15 AM 37.1078 -82.7728 142° Southeast 494 568 30,300 -774 Descending Indianapolis Center
Mon 11:07:17 AM 36.9956 -82.6642 142° Southeast 498 573 29,400 -629 Descending Indianapolis Center
Mon 11:08:19 AM 36.8842 -82.5606 143° Southeast 492 566 29,000 -290 Descending Indianapolis Center
Mon 11:09:21 AM 36.7686 -82.4708 148° Southeast 487 560 28,800 -532 Descending Indianapolis Center
Mon 11:10:23 AM 36.6536 -82.3828 148° Southeast 483 556 27,900 -974 Descending Indianapolis Center
Mon 11:11:18 AM 36.5317 -82.2897 148° Southeast 480 552 26,900 -1,096 Descending Atlanta Center
Mon 11:12:18 AM 36.4158 -82.2019 149° Southeast 486 559 25,800 -950 Descending Atlanta Center
Mon 11:13:18 AM 36.2997 -82.1144 149° Southeast 486 559 25,000 -700 Descending Atlanta Center
Mon 11:14:18 AM 36.2025 -82.0419 149° Southeast 471 542 24,400 -1,200 Descending Atlanta Center
Mon 11:15:18 AM 36.1033 -81.9597 146° Southeast 449 517 22,600 -2,300 Descending Atlanta Center
Mon 11:16:18 AM 36.0039 -81.8878 150° Southeast 421 484 19,800 -2,750 Descending Atlanta Center
Mon 11:17:18 AM 35.9108 -81.8158 148° Southeast 408 470 17,100 -2,797 Descending Atlanta Center
Mon 11:18:16 AM 35.8136 -81.7417 148° Southeast 385 443 14,300 -2,250 Descending Atlanta Center
Mon 11:19:18 AM 35.7331 -81.6825 149° Southeast 379 436 12,600 -1,131 Descending Atlanta Center
Mon 11:20:18 AM 35.6569 -81.6261 149° Southeast 337 388 12,000 -300 Descending Atlanta Center
Mon 11:21:18 AM 35.5889 -81.5617 142° Southeast 315 362 12,000  Level Atlanta Center
Mon 11:22:18 AM 35.5331 -81.4767 129° Southeast 310 357 12,000 -250 Level Atlanta Center
Mon 11:23:18 AM 35.4769 -81.3942 130° Southeast 315 362 11,500 -800 Descending Atlanta Center
Mon 11:24:33 AM 35.4036 -81.2794 128° Southeast 314 361 10,200 -1,000 Descending Atlanta Center
Mon 11:25:18 AM 35.3606 -81.2222 133° Southeast 321 369 9,500 -686 Descending Atlanta Center
Mon 11:26:18 AM 35.3086 -81.1450 129° Southeast 311 358 9,000 -250 Descending Atlanta Center
Mon 11:27:18 AM 35.2611 -81.0806 132° Southeast 279 321 9,000 -292 Level Atlanta Center
Mon 11:28:42 AM 35.1711 -81.0686 174° South 230 265 8,300 -906 Descending Atlanta Center
Mon 11:29:37 AM 35.1106 -81.0631 176° South 236 272 6,900 -1,397 Descending Atlanta Center
Mon 11:30:38 AM 35.0436 -81.0578 176° South 237 273 5,600 -1,266 Descending Atlanta Center
Mon 11:31:45 AM 35.0047 -81.0008 130° Southeast 234 269 4,200 -1,075 Descending Atlanta Center
Mon 11:32:52 AM 35.0453 -80.9539 43° Northeast 217 250 3,200 -689 Descending Atlanta Center
Mon 11:33:47 AM 35.0933 -80.9597 354° North 179 206 2,800 -689 Descending Atlanta Center
Mon 11:34:54 AM 35.1456 -80.9653 355° North 159 183 1,800 -836 Descending Atlanta Center
Mon 11:35:49 AM 35.1811 -80.9667 358° North 136 157 1,100 -764 Descending Atlanta Center

Login

Don't have an account? Register now (free) for customized features, flight alerts, and more!